createdAt,value
2018-02-05T00:00:24.284Z,20.77
2018-02-05T00:02:51.960Z,20.03
2018-02-05T00:05:20.622Z,21.33
2018-02-05T00:07:48.227Z,22.20
2018-02-05T00:10:15.932Z,20.13
2018-02-05T00:12:43.606Z,26.63
2018-02-05T00:15:11.267Z,22.53
2018-02-05T00:17:38.942Z,19.67
2018-02-05T00:20:06.602Z,20.80
2018-02-05T00:22:34.195Z,22.90
2018-02-05T00:25:01.820Z,22.33
2018-02-05T00:27:29.498Z,21.67
2018-02-05T00:29:57.161Z,21.70
2018-02-05T00:32:25.414Z,19.03
2018-02-05T00:34:54.013Z,31.43
2018-02-05T00:37:21.669Z,23.37
2018-02-05T00:39:49.318Z,26.07
2018-02-05T00:42:17.020Z,21.73
2018-02-05T00:44:45.445Z,22.17
2018-02-05T00:47:13.130Z,21.00
2018-02-05T00:49:40.806Z,20.37
2018-02-05T00:52:08.469Z,20.10
2018-02-05T00:54:36.159Z,19.07
2018-02-05T00:57:04.624Z,20.07
2018-02-05T00:59:32.304Z,19.03
2018-02-05T01:02:00.754Z,18.07
2018-02-05T01:04:29.296Z,18.80
2018-02-05T01:06:56.961Z,18.80
2018-02-05T01:09:24.625Z,18.43
2018-02-05T01:11:52.310Z,17.50
2018-02-05T01:14:20.011Z,19.90
2018-02-05T01:16:47.670Z,18.47
2018-02-05T01:19:15.670Z,16.70
2018-02-05T01:21:44.102Z,21.57
2018-02-05T01:24:11.764Z,19.90
2018-02-05T01:26:39.451Z,20.27
2018-02-05T01:29:07.054Z,28.83
2018-02-05T01:31:34.667Z,20.53
2018-02-05T01:34:05.767Z,19.90
2018-02-05T01:36:34.343Z,18.63
2018-02-05T01:39:02.052Z,18.50
2018-02-05T01:41:29.725Z,19.67
2018-02-05T01:43:57.446Z,19.07
2018-02-05T01:46:25.147Z,20.60
2018-02-05T01:48:52.790Z,18.27
2018-02-05T01:51:20.463Z,16.90
2018-02-05T01:53:48.125Z,19.73
2018-02-05T01:56:15.809Z,19.00
2018-02-05T01:58:43.468Z,20.60
2018-02-05T02:01:11.133Z,18.80
2018-02-05T02:03:39.759Z,19.33
2018-02-05T02:06:07.431Z,18.03
2018-02-05T02:08:35.081Z,17.53
2018-02-05T02:11:02.747Z,18.87
2018-02-05T02:13:30.408Z,17.47
2018-02-05T02:15:58.843Z,15.90
2018-02-05T02:18:26.539Z,17.43
2018-02-05T02:20:54.193Z,18.03
2018-02-05T02:23:21.882Z,17.63
2018-02-05T02:25:51.539Z,17.80
2018-02-05T02:28:19.230Z,17.57
2018-02-05T02:30:47.679Z,15.43
2018-02-05T02:33:15.349Z,16.13
2018-02-05T02:35:43.023Z,15.30
2018-02-05T02:38:10.669Z,15.10
2018-02-05T02:40:38.356Z,16.00
2018-02-05T02:43:06.024Z,15.77
2018-02-05T02:45:33.692Z,16.67
2018-02-05T02:48:02.117Z,17.03
2018-02-05T02:50:29.778Z,17.93
2018-02-05T02:52:57.442Z,17.53
2018-02-05T02:55:26.051Z,19.30
2018-02-05T02:57:53.745Z,21.10
2018-02-05T03:00:21.409Z,21.10
2018-02-05T03:02:49.076Z,20.70
2018-02-05T03:05:16.722Z,21.63
2018-02-05T03:07:44.416Z,23.23
2018-02-05T03:10:12.970Z,24.17
2018-02-05T03:12:40.653Z,23.87
2018-02-05T03:15:08.321Z,24.27
2018-02-05T03:17:36.752Z,24.80
2018-02-05T03:20:05.203Z,23.70
2018-02-05T03:22:32.872Z,24.70
2018-02-05T03:25:01.478Z,27.07
2018-02-05T03:27:29.145Z,24.83
2018-02-05T03:29:56.807Z,23.33
2018-02-05T03:32:24.486Z,25.13
2018-02-05T03:34:52.143Z,24.10
2018-02-05T03:37:19.823Z,21.93
2018-02-05T03:39:47.527Z,23.43
2018-02-05T03:42:15.528Z,22.33
2018-02-05T03:44:43.221Z,21.80
2018-02-05T03:47:10.933Z,21.53
2018-02-05T03:49:38.621Z,20.73
2018-02-05T03:52:06.312Z,21.23
2018-02-05T03:54:34.836Z,22.27
2018-02-05T03:57:02.497Z,20.33
2018-02-05T03:59:30.165Z,21.33
2018-02-05T04:01:57.846Z,19.90
2018-02-05T04:04:25.513Z,19.50
2018-02-05T04:06:58.729Z,19.50
2018-02-05T04:09:26.400Z,17.00
2018-02-05T04:11:54.063Z,18.03
2018-02-05T04:14:23.660Z,18.50
2018-02-05T04:16:51.688Z,18.23
2018-02-05T04:19:19.344Z,20.17
2018-02-05T04:21:47.012Z,20.77
2018-02-05T04:24:14.681Z,20.23
2018-02-05T04:26:42.374Z,21.33
2018-02-05T04:29:10.039Z,20.97
2018-02-05T04:31:37.721Z,21.60
2018-02-05T04:34:05.429Z,21.37
2018-02-05T04:36:33.086Z,22.60
2018-02-05T04:39:00.792Z,22.43
2018-02-05T04:41:28.392Z,21.37
2018-02-05T04:43:57.752Z,21.27
2018-02-05T04:46:26.541Z,20.97
2018-02-05T04:48:54.191Z,21.43
2018-02-05T04:51:22.971Z,21.47
2018-02-05T04:53:50.682Z,21.77
2018-02-05T04:56:18.388Z,22.13
2018-02-05T04:58:46.100Z,21.60
2018-02-05T05:01:13.797Z,21.57
2018-02-05T05:03:41.552Z,23.20
2018-02-05T05:06:09.596Z,24.13
2018-02-05T05:08:37.253Z,22.97
2018-02-05T05:11:04.943Z,23.93
2018-02-05T05:13:36.235Z,21.67
2018-02-05T05:16:04.214Z,22.07
2018-02-05T05:18:31.919Z,21.40
2018-02-05T05:20:59.599Z,21.50
2018-02-05T05:23:27.896Z,21.07
2018-02-05T05:25:55.811Z,20.53
2018-02-05T05:28:24.244Z,21.13
2018-02-05T05:30:52.151Z,22.00
2018-02-05T05:33:19.729Z,21.47
2018-02-05T05:35:48.543Z,22.57
2018-02-05T05:38:16.211Z,20.83
2018-02-05T05:40:43.875Z,21.63
2018-02-05T05:43:11.551Z,21.47
2018-02-05T05:45:39.543Z,22.30
2018-02-05T05:48:07.426Z,21.23
2018-02-05T05:50:35.177Z,21.50
2018-02-05T05:53:02.878Z,21.20
2018-02-05T05:55:30.561Z,21.53
2018-02-05T05:57:58.256Z,22.63
2018-02-05T06:00:26.302Z,21.70
2018-02-05T06:02:54.311Z,21.37
2018-02-05T06:05:23.423Z,22.30
2018-02-05T06:07:52.539Z,19.83
2018-02-05T06:10:20.178Z,21.10
2018-02-05T06:12:47.864Z,21.37
2018-02-05T06:15:15.534Z,22.87
2018-02-05T06:17:44.035Z,21.83
2018-02-05T06:20:11.720Z,22.90
2018-02-05T06:22:41.708Z,20.83
2018-02-05T06:25:10.579Z,22.37
2018-02-05T06:27:38.506Z,21.90
2018-02-05T06:30:07.090Z,23.13
2018-02-05T06:32:34.726Z,22.53
2018-02-05T06:35:02.402Z,23.23
2018-02-05T06:37:30.428Z,22.57
2018-02-05T06:39:58.467Z,22.80
2018-02-05T06:42:26.214Z,23.27
2018-02-05T06:44:54.395Z,22.37
2018-02-05T06:47:22.220Z,22.20
2018-02-05T06:49:49.957Z,24.40
2018-02-05T06:55:45.247Z,22.00
2018-02-05T06:58:12.957Z,22.57
2018-02-05T07:00:40.631Z,22.47
2018-02-05T07:03:08.588Z,22.13
2018-02-05T07:05:40.170Z,24.07
2018-02-05T07:08:07.861Z,24.03
2018-02-05T07:10:35.945Z,23.67
2018-02-05T07:13:03.627Z,23.93
2018-02-05T07:15:31.290Z,21.17
2018-02-05T07:17:59.014Z,23.43
2018-02-05T07:20:26.688Z,22.10
2018-02-05T07:22:54.452Z,22.03
2018-02-05T07:25:22.028Z,23.90
2018-02-05T07:27:50.458Z,23.27
2018-02-05T07:30:18.447Z,22.17
2018-02-05T07:32:46.233Z,23.00
2018-02-05T07:35:18.248Z,22.60
2018-02-05T07:37:46.277Z,22.70
2018-02-05T07:40:14.873Z,22.63
2018-02-05T07:42:43.326Z,21.20
2018-02-05T07:45:11.251Z,22.00
2018-02-05T07:47:38.926Z,22.27
2018-02-05T07:50:06.610Z,19.53
2018-02-05T07:52:34.303Z,21.13
2018-02-05T07:55:03.082Z,20.77
2018-02-05T07:57:31.606Z,19.57
2018-02-05T07:59:59.307Z,25.53
2018-02-05T08:02:26.956Z,35.13
2018-02-05T08:04:55.593Z,19.77
2018-02-05T08:07:23.244Z,19.80
2018-02-05T08:09:51.685Z,18.60
2018-02-05T08:12:19.362Z,17.90
2018-02-05T08:14:47.708Z,19.07
2018-02-05T08:17:16.284Z,19.07
2018-02-05T08:19:44.690Z,18.53
2018-02-05T08:22:12.855Z,17.73
2018-02-05T08:24:41.045Z,18.37
2018-02-05T08:27:08.758Z,17.20
2018-02-05T08:29:37.218Z,20.33
2018-02-05T08:32:05.399Z,18.27
2018-02-05T08:34:34.173Z,17.37
2018-02-05T08:37:02.139Z,18.67
2018-02-05T08:39:31.074Z,18.23
2018-02-05T08:41:59.703Z,20.97
2018-02-05T08:44:28.084Z,19.00
2018-02-05T08:46:57.730Z,20.57
2018-02-05T08:49:27.576Z,17.67
2018-02-05T08:51:55.512Z,18.23
2018-02-05T08:54:24.082Z,18.97
2018-02-05T08:56:51.961Z,18.63
2018-02-05T08:59:21.681Z,19.00
2018-02-05T09:01:49.625Z,18.90
2018-02-05T09:04:17.889Z,19.13
2018-02-05T09:06:45.533Z,17.90
2018-02-05T09:09:14.008Z,20.87
2018-02-05T09:11:41.664Z,17.83
2018-02-05T09:14:09.352Z,19.03
2018-02-05T09:16:36.998Z,19.33
2018-02-05T09:19:04.680Z,19.20
2018-02-05T09:21:33.778Z,28.43
2018-02-05T09:24:01.571Z,19.87
2018-02-05T09:26:30.955Z,35.30
2018-02-05T09:28:58.605Z,20.17
2018-02-05T09:31:26.422Z,20.67
2018-02-05T09:33:54.101Z,19.77
2018-02-05T09:36:22.582Z,20.03
2018-02-05T09:38:50.514Z,19.70
2018-02-05T09:41:18.192Z,22.00
2018-02-05T09:43:45.867Z,21.13
2018-02-05T09:46:13.558Z,20.17
2018-02-05T09:48:41.251Z,20.60
2018-02-05T09:51:08.938Z,21.13
2018-02-05T09:53:38.379Z,23.33
2018-02-05T09:56:06.800Z,21.60
2018-02-05T09:58:34.461Z,20.03
2018-02-05T10:01:02.145Z,19.83
2018-02-05T10:03:29.819Z,19.50
2018-02-05T10:05:57.501Z,21.20
2018-02-05T10:08:25.977Z,20.03
2018-02-05T10:10:53.651Z,19.27
2018-02-05T10:13:22.104Z,19.03
2018-02-05T10:15:49.843Z,18.73
2018-02-05T10:18:17.521Z,18.63
2018-02-05T10:20:45.204Z,19.47
2018-02-05T10:23:12.853Z,19.67
2018-02-05T10:25:40.432Z,18.57
2018-02-05T10:28:08.533Z,19.53
2018-02-05T10:30:37.546Z,19.67
2018-02-05T10:33:05.547Z,19.20
2018-02-05T10:35:33.267Z,19.17
2018-02-05T10:38:02.286Z,19.00
2018-02-05T10:40:30.835Z,19.87
2018-02-05T10:42:58.543Z,19.10
2018-02-05T10:45:27.963Z,19.43
2018-02-05T10:47:56.876Z,18.73
2018-02-05T10:50:24.526Z,19.03
2018-02-05T10:52:52.267Z,18.33
2018-02-05T10:55:19.922Z,16.97
2018-02-05T10:57:47.611Z,18.93
2018-02-05T11:00:15.326Z,18.47
2018-02-05T11:02:42.984Z,17.40
2018-02-05T11:05:10.767Z,17.23
2018-02-05T11:07:39.272Z,17.07
2018-02-05T11:10:07.015Z,18.70
2018-02-05T11:12:34.650Z,16.97
2018-02-05T11:15:03.200Z,17.90
2018-02-05T11:17:30.864Z,17.63
2018-02-05T11:19:58.473Z,18.33
2018-02-05T11:22:26.086Z,17.23
2018-02-05T11:24:53.765Z,16.90
2018-02-05T11:27:21.432Z,18.00
2018-02-05T11:29:49.123Z,16.73
2018-02-05T11:32:17.599Z,17.43
2018-02-05T11:34:46.615Z,18.43
2018-02-05T11:37:14.865Z,19.23
2018-02-05T11:39:42.550Z,20.63
2018-02-05T11:42:10.547Z,19.27
2018-02-05T11:44:38.313Z,18.73
2018-02-05T11:47:05.980Z,18.37
2018-02-05T11:49:33.654Z,18.83
2018-02-05T11:52:01.310Z,17.13
2018-02-05T11:54:29.247Z,19.53
2018-02-05T11:56:56.901Z,17.47
2018-02-05T11:59:24.899Z,18.07
2018-02-05T12:01:52.579Z,18.27
2018-02-05T12:04:20.165Z,18.87
2018-02-05T12:06:47.750Z,17.33
2018-02-05T12:09:15.345Z,17.23
2018-02-05T12:11:42.944Z,17.97
2018-02-05T12:14:10.867Z,16.80
2018-02-05T12:16:38.466Z,17.43
2018-02-05T12:19:06.083Z,17.33
2018-02-05T12:21:33.662Z,18.10
2018-02-05T12:24:01.577Z,18.90
2018-02-05T12:26:29.163Z,16.43
2018-02-05T12:28:56.997Z,17.03
2018-02-05T12:31:24.656Z,16.23
2018-02-05T12:33:52.332Z,15.90
2018-02-05T12:36:20.158Z,17.23
2018-02-05T12:38:47.813Z,15.70
2018-02-05T12:41:15.404Z,15.50
2018-02-05T12:43:43.055Z,17.53
2018-02-05T12:46:10.656Z,15.97
2018-02-05T12:48:38.264Z,15.67
2018-02-05T12:51:06.187Z,16.50
2018-02-05T12:53:33.814Z,15.67
2018-02-05T12:56:01.462Z,17.13
2018-02-05T12:58:29.068Z,17.20
2018-02-05T13:01:07.335Z,17.57
2018-02-05T13:03:36.767Z,15.30
2018-02-05T13:06:07.148Z,16.23
2018-02-05T13:08:34.739Z,15.83
2018-02-05T13:11:02.322Z,17.63
2018-02-05T13:13:29.923Z,16.50
2018-02-05T13:15:57.544Z,16.10
2018-02-05T13:18:25.129Z,15.67
2018-02-05T13:20:52.730Z,17.63
2018-02-05T13:23:21.077Z,16.97
2018-02-05T13:25:48.965Z,17.23
2018-02-05T13:28:18.485Z,15.73
2018-02-05T13:30:47.355Z,17.33
2018-02-05T13:33:15.413Z,16.03
2018-02-05T13:35:43.023Z,16.07
2018-02-05T13:38:10.622Z,15.10
2018-02-05T13:40:38.260Z,15.60
2018-02-05T13:43:05.888Z,16.70
2018-02-05T13:45:33.552Z,15.80
2018-02-05T13:48:01.252Z,16.33
2018-02-05T13:50:31.001Z,16.30
2018-02-05T13:52:58.768Z,15.80
2018-02-05T13:55:27.323Z,15.63
2018-02-05T13:57:54.971Z,15.33
2018-02-05T14:00:22.567Z,14.83
2018-02-05T14:02:50.907Z,14.83
2018-02-05T14:05:18.532Z,15.03
2018-02-05T14:07:47.160Z,15.10
2018-02-05T14:10:14.757Z,13.90
2018-02-05T14:12:42.965Z,14.27
2018-02-05T14:15:10.647Z,14.30
2018-02-05T14:17:38.374Z,13.10
2018-02-05T14:20:06.054Z,15.57
2018-02-05T14:22:33.714Z,14.33
2018-02-05T14:25:03.369Z,15.70
2018-02-05T14:27:31.034Z,15.47
2018-02-05T14:29:58.699Z,15.77
2018-02-05T14:32:26.377Z,16.30
2018-02-05T14:34:54.048Z,15.20
2018-02-05T14:37:22.396Z,15.97
2018-02-05T14:39:50.007Z,16.07
2018-02-05T14:42:17.583Z,16.00
2018-02-05T14:44:45.160Z,16.47
2018-02-05T14:47:12.774Z,16.87
2018-02-05T14:49:40.366Z,16.40
2018-02-05T14:52:07.946Z,16.20
2018-02-05T14:54:36.750Z,15.57
2018-02-05T14:57:04.343Z,16.07
2018-02-05T14:59:31.966Z,16.30
2018-02-05T15:01:59.624Z,16.87
2018-02-05T15:04:27.292Z,16.63
2018-02-05T15:06:54.973Z,16.13
2018-02-05T15:09:22.613Z,16.07
2018-02-05T15:11:50.266Z,16.20
2018-02-05T15:14:19.565Z,16.83
2018-02-05T15:16:47.291Z,16.03
2018-02-05T15:19:15.737Z,15.60
2018-02-05T15:21:43.399Z,16.97
2018-02-05T15:24:12.263Z,15.60
2018-02-05T15:26:39.980Z,16.80
2018-02-05T15:29:08.422Z,16.03
2018-02-05T15:31:36.102Z,15.47
2018-02-05T15:34:04.130Z,15.77
2018-02-05T15:36:38.261Z,15.97
2018-02-05T15:39:06.074Z,16.93
2018-02-05T15:41:33.752Z,15.90
2018-02-05T15:44:02.594Z,17.17
2018-02-05T15:46:30.255Z,16.03
2018-02-05T15:48:57.939Z,16.97
2018-02-05T15:51:25.589Z,17.17
2018-02-05T15:53:53.294Z,17.70
2018-02-05T15:56:21.747Z,16.67
2018-02-05T15:58:49.402Z,16.43
2018-02-05T16:01:17.094Z,16.30
2018-02-05T16:03:44.762Z,16.30
2018-02-05T16:06:12.430Z,16.83
2018-02-05T16:08:40.871Z,17.00
2018-02-05T16:11:08.562Z,17.73
2018-02-05T16:13:36.227Z,17.83
2018-02-05T16:16:03.901Z,17.83
2018-02-05T16:18:31.566Z,16.43
2018-02-05T16:20:59.995Z,17.53
2018-02-05T16:23:27.668Z,17.97
2018-02-05T16:25:55.750Z,17.60
2018-02-05T16:28:23.492Z,17.27
2018-02-05T16:30:51.162Z,17.63
2018-02-05T16:33:24.910Z,18.20
2018-02-05T16:35:58.238Z,16.93
2018-02-05T16:38:27.673Z,18.87
2018-02-05T16:40:55.332Z,17.70
2018-02-05T16:43:22.989Z,17.17
2018-02-05T16:45:50.668Z,17.53
2018-02-05T16:48:18.926Z,17.97
2018-02-05T16:50:46.598Z,18.37
2018-02-05T16:53:14.278Z,18.27
2018-02-05T16:55:44.073Z,17.90
2018-02-05T16:58:11.756Z,16.67
2018-02-05T17:00:39.440Z,18.07
2018-02-05T17:03:07.860Z,18.27
2018-02-05T17:05:35.520Z,17.40
2018-02-05T17:08:03.185Z,17.87
2018-02-05T17:10:31.488Z,19.77
2018-02-05T17:13:00.228Z,18.67
2018-02-05T17:15:27.962Z,19.67
2018-02-05T17:17:57.471Z,20.13
2018-02-05T17:20:25.222Z,20.23
2018-02-05T17:22:52.891Z,20.40
2018-02-05T17:25:22.572Z,19.73
2018-02-05T17:27:50.312Z,21.00
2018-02-05T17:30:18.322Z,21.50
2018-02-05T17:32:47.474Z,19.37
2018-02-05T17:35:15.303Z,19.77
2018-02-05T17:37:43.527Z,18.80
2018-02-05T17:40:11.980Z,19.13
2018-02-05T17:42:40.599Z,19.63
2018-02-05T17:45:12.522Z,20.80
2018-02-05T17:47:40.511Z,18.90
2018-02-05T17:50:13.696Z,19.37
2018-02-05T17:52:48.172Z,18.63
2018-02-05T17:55:17.159Z,18.23
2018-02-05T17:57:45.356Z,18.63
2018-02-05T18:00:14.239Z,17.90
2018-02-05T18:02:42.583Z,17.50
2018-02-05T18:05:11.319Z,17.17
2018-02-05T18:07:40.579Z,17.83
2018-02-05T18:10:08.307Z,18.87
2018-02-05T18:12:38.088Z,18.57
2018-02-05T18:15:07.383Z,18.17
2018-02-05T18:17:35.875Z,18.33
2018-02-05T18:20:04.143Z,18.83
2018-02-05T18:22:32.460Z,19.73
2018-02-05T18:25:01.153Z,19.57
2018-02-05T18:27:29.577Z,19.57
2018-02-05T18:29:58.016Z,20.67
2018-02-05T18:32:25.637Z,19.27
2018-02-05T18:34:53.331Z,20.10
2018-02-05T18:37:21.360Z,20.20
2018-02-05T18:39:50.401Z,20.57
2018-02-05T18:42:18.850Z,20.27
2018-02-05T18:44:48.021Z,20.17
2018-02-05T18:47:16.827Z,19.87
2018-02-05T18:49:45.255Z,20.17
2018-02-05T18:52:13.883Z,19.57
2018-02-05T18:54:41.762Z,19.47
2018-02-05T18:57:09.454Z,19.10
2018-02-05T18:59:37.989Z,19.83
2018-02-05T19:02:18.045Z,19.60
2018-02-05T19:04:47.283Z,19.50
2018-02-05T19:07:15.437Z,18.90
2018-02-05T19:09:43.207Z,20.00
2018-02-05T19:12:12.090Z,17.73
2018-02-05T19:14:39.757Z,18.93
2018-02-05T19:17:07.413Z,19.60
2018-02-05T19:19:35.511Z,19.10
2018-02-05T19:22:03.182Z,19.67
2018-02-05T19:24:30.859Z,18.77
2018-02-05T19:26:58.506Z,19.20
2018-02-05T19:29:26.153Z,19.30
2018-02-05T19:31:53.862Z,19.13
2018-02-05T19:34:22.509Z,18.93
2018-02-05T19:36:50.171Z,18.63
2018-02-05T19:39:17.867Z,18.10
2018-02-05T19:41:45.509Z,18.83
2018-02-05T19:44:13.192Z,19.03
2018-02-05T19:46:40.859Z,18.87
2018-02-05T19:49:08.513Z,18.57
2018-02-05T19:51:36.200Z,18.40
2018-02-05T19:54:04.637Z,18.67
2018-02-05T19:56:32.335Z,19.27
2018-02-05T19:58:59.973Z,18.60
2018-02-05T20:01:27.625Z,19.90
2018-02-05T20:03:57.468Z,18.57
2018-02-05T20:06:25.062Z,18.87
2018-02-05T20:08:52.663Z,21.15
2018-02-05T20:11:20.354Z,20.40
2018-02-05T20:13:48.027Z,20.40
2018-02-05T20:16:21.350Z,20.40
2018-02-05T20:18:49.020Z,19.43
2018-02-05T20:21:16.712Z,20.13
2018-02-05T20:23:45.435Z,20.67
2018-02-05T20:26:13.130Z,19.93
2018-02-05T20:28:40.742Z,19.93
2018-02-05T20:31:08.365Z,19.73
2018-02-05T20:33:36.013Z,20.07
2018-02-05T20:36:03.696Z,19.53
2018-02-05T20:38:31.346Z,19.70
2018-02-05T20:40:59.016Z,20.27
2018-02-05T20:43:26.676Z,20.33
2018-02-05T20:45:57.788Z,20.03
2018-02-05T20:48:26.235Z,19.27
2018-02-05T20:50:53.844Z,19.73
2018-02-05T20:53:21.505Z,19.40
2018-02-05T20:55:49.111Z,17.47
2018-02-05T20:58:16.811Z,20.23
2018-02-05T21:00:44.462Z,18.50
2018-02-05T21:03:12.147Z,18.63
2018-02-05T21:05:40.590Z,18.63
2018-02-05T21:08:08.230Z,18.90
2018-02-05T21:10:35.926Z,17.90
2018-02-05T21:13:03.610Z,18.10
2018-02-05T21:15:32.229Z,16.73
2018-02-05T21:17:59.918Z,19.20
2018-02-05T21:20:27.568Z,19.33
2018-02-05T21:22:55.224Z,18.33
2018-02-05T21:25:22.867Z,18.87
2018-02-05T21:27:51.284Z,19.03
2018-02-05T21:30:18.963Z,19.23
2018-02-05T21:32:46.630Z,19.47
2018-02-05T21:35:14.294Z,19.30
2018-02-05T21:37:41.955Z,18.10
2018-02-05T21:40:09.614Z,18.97
2018-02-05T21:42:37.312Z,19.17
2018-02-05T21:45:06.685Z,18.80
2018-02-05T21:47:34.334Z,20.53
2018-02-05T21:50:01.956Z,21.57
2018-02-05T21:52:29.656Z,20.27
2018-02-05T21:54:57.344Z,20.47
2018-02-05T21:57:24.985Z,21.57
2018-02-05T21:59:52.648Z,21.43
2018-02-05T22:02:20.321Z,21.90
2018-02-05T22:04:47.963Z,20.27
2018-02-05T22:07:15.643Z,20.47
2018-02-05T22:09:43.340Z,20.70
2018-02-05T22:12:11.012Z,20.67
2018-02-05T22:14:39.850Z,21.13
2018-02-05T22:17:07.520Z,21.27
2018-02-05T22:19:35.179Z,20.50
2018-02-05T22:22:02.865Z,21.50
2018-02-05T22:24:30.558Z,21.17
2018-02-05T22:26:58.968Z,21.53
2018-02-05T22:29:26.623Z,20.97
2018-02-05T22:31:54.290Z,21.73
2018-02-05T22:34:21.966Z,22.57
2018-02-05T22:36:49.599Z,22.97
2018-02-05T22:39:17.277Z,20.93
2018-02-05T22:41:44.887Z,19.93
2018-02-05T22:44:13.584Z,19.60
2018-02-05T22:46:41.186Z,20.03
2018-02-05T22:49:08.859Z,20.50
2018-02-05T22:51:36.487Z,19.30
2018-02-05T22:54:04.174Z,21.77
2018-02-05T22:56:31.840Z,20.77
2018-02-05T22:58:59.491Z,20.80
2018-02-05T23:01:27.914Z,20.47
2018-02-05T23:03:55.579Z,21.93
2018-02-05T23:06:23.264Z,21.13
2018-02-05T23:08:50.904Z,21.00
2018-02-05T23:11:18.596Z,20.50
2018-02-05T23:13:48.384Z,22.07
2018-02-05T23:16:16.074Z,20.07
2018-02-05T23:18:43.760Z,19.87
2018-02-05T23:21:11.420Z,21.63
2018-02-05T23:23:39.856Z,19.93
2018-02-05T23:26:10.346Z,20.93
2018-02-05T23:28:37.946Z,21.33
2018-02-05T23:31:05.516Z,19.97
2018-02-05T23:33:33.107Z,21.43
2018-02-05T23:36:00.725Z,20.60
2018-02-05T23:38:28.300Z,21.37
2018-02-05T23:40:55.909Z,23.60
2018-02-05T23:43:24.346Z,25.00
2018-02-05T23:45:52.016Z,25.30
2018-02-05T23:48:19.744Z,22.50
2018-02-05T23:50:47.374Z,22.00
2018-02-05T23:53:15.040Z,20.83
2018-02-05T23:55:44.688Z,21.83
2018-02-05T23:58:12.346Z,20.67
